Time;durP1;ratioP1;P1;durP2;ratioP2;P2;SDS_P1;SDS_P2;PMS_P1;PMS_P2;Temp;Humidity;BMP_temperature;BMP_pressure;BME280_temperature;BME280_humidity;BME280_pressure;Samples;Min_cycle;Max_cycle;Signal;HPM_P1;HPM_P2
2023/01/22 00:02:04;;;;;;;0.20;0.20;;;;;;;0.19;73.15;103597.56;5032958;28;20026;-81
2023/01/22 00:04:31;;;;;;;0.10;0.10;;;;;;;0.19;73.14;103597.56;5038369;28;20025;-80
2023/01/22 00:06:57;;;;;;;0.20;0.20;;;;;;;0.21;73.22;103595.03;5035629;28;20028;-80
2023/01/22 00:09:23;;;;;;;0.30;0.30;;;;;;;0.20;72.82;103586.31;5032051;28;20063;-81
2023/01/22 00:11:50;;;;;;;1.83;1.73;;;;;;;0.21;72.89;103585.50;5027234;28;20084;-80
2023/01/22 00:14:16;;;;;;;1.40;1.40;;;;;;;0.22;73.10;103582.09;5019828;28;20103;-81
2023/01/22 00:16:43;;;;;;;0.10;0.10;;;;;;;0.22;73.04;103582.09;5024091;28;20104;-80
2023/01/22 00:19:10;;;;;;;0.20;0.20;;;;;;;0.25;72.85;103582.31;5016539;28;20401;-80
2023/01/22 00:21:36;;;;;;;0.20;0.20;;;;;;;0.26;73.26;103584.13;5029929;28;20035;-80
2023/01/22 00:24:02;;;;;;;0.20;0.20;;;;;;;0.34;73.13;103586.31;5020129;28;20512;-80
2023/01/22 00:26:28;;;;;;;0.15;0.15;;;;;;;0.42;73.29;103574.69;5019118;28;20236;-81
2023/01/22 00:28:55;;;;;;;0.20;0.20;;;;;;;0.54;72.94;103570.28;5024548;28;20153;-81
2023/01/22 00:31:22;;;;;;;0.52;0.52;;;;;;;0.62;73.08;103571.72;5022693;28;20503;-81
2023/01/22 00:33:48;;;;;;;0.20;0.20;;;;;;;0.71;73.08;103573.09;5019641;28;20105;-81
2023/01/22 00:36:17;;;;;;;0.20;0.20;;;;;;;0.78;73.55;103570.06;5018621;28;20030;-80
2023/01/22 00:38:43;;;;;;;0.25;0.25;;;;;;;0.88;73.44;103569.84;5021177;28;20037;-80
2023/01/22 00:41:11;;;;;;;0.10;0.10;;;;;;;0.92;73.56;103565.72;5023995;28;20026;-80
2023/01/22 00:43:37;;;;;;;0.20;0.20;;;;;;;0.96;73.83;103570.38;5018671;28;20511;-81
2023/01/22 00:46:04;;;;;;;0.20;0.20;;;;;;;0.99;73.63;103570.53;5020782;28;20117;-81
2023/01/22 00:48:31;;;;;;;0.20;0.20;;;;;;;1.02;74.10;103564.63;5024470;28;20428;-80
2023/01/22 00:50:57;;;;;;;0.20;0.20;;;;;;;1.03;73.95;103569.03;5024617;28;20029;-81
2023/01/22 00:53:24;;;;;;;0.20;0.20;;;;;;;1.06;74.15;103566.59;5031885;28;20044;-81
2023/01/22 00:55:52;;;;;;;0.10;0.10;;;;;;;1.14;74.13;103568.00;5044377;28;20059;-80
2023/01/22 00:58:18;;;;;;;0.17;0.17;;;;;;;1.23;74.25;103571.16;5028686;28;20097;-81
2023/01/22 01:00:44;;;;;;;0.20;0.20;;;;;;;1.32;74.04;103569.94;5015310;28;20025;-81
2023/01/22 01:03:25;;;;;;;0.20;0.20;;;;;;;1.38;73.97;103571.22;5015368;28;20036;-80
2023/01/22 01:05:56;;;;;;;0.20;0.20;;;;;;;1.47;74.05;103562.16;5022924;28;20406;-80
2023/01/22 01:08:23;;;;;;;0.17;0.17;;;;;;;1.53;74.05;103560.81;5024587;28;20030;-80
2023/01/22 01:10:53;;;;;;;0.35;0.35;;;;;;;1.61;74.04;103559.59;5037845;28;20018;-80
2023/01/22 01:13:20;;;;;;;0.20;0.20;;;;;;;1.65;74.15;103557.16;5045086;28;20116;-80
2023/01/22 01:15:46;;;;;;;0.20;0.20;;;;;;;1.70;74.06;103540.06;5034326;28;20040;-80
2023/01/22 01:18:13;;;;;;;0.40;0.40;;;;;;;1.75;74.08;103547.34;5033715;28;20409;-80
2023/01/22 01:20:40;;;;;;;0.20;0.20;;;;;;;1.82;73.90;103543.41;5033249;28;20578;-80
2023/01/22 01:23:06;;;;;;;0.10;0.10;;;;;;;1.87;73.83;103539.34;5034430;28;20428;-80
2023/01/22 01:25:32;;;;;;;0.10;0.10;;;;;;;1.90;73.90;103544.75;5033877;28;20044;-80
2023/01/22 01:27:59;;;;;;;0.52;0.52;;;;;;;1.96;73.97;103545.91;5034040;28;20029;-80
2023/01/22 01:30:25;;;;;;;0.40;0.40;;;;;;;1.99;73.73;103546.09;5033358;28;20037;-80
2023/01/22 01:32:51;;;;;;;0.47;0.45;;;;;;;2.02;74.08;103548.88;5034167;28;20488;-80
2023/01/22 01:35:18;;;;;;;0.20;0.20;;;;;;;2.05;73.73;103547.34;5033741;28;20028;-80
2023/01/22 01:37:44;;;;;;;0.10;0.10;;;;;;;2.09;73.83;103543.22;5033653;28;20057;-80
2023/01/22 01:40:11;;;;;;;0.60;0.60;;;;;;;2.11;73.89;103544.22;5033217;28;20017;-80
2023/01/22 01:42:41;;;;;;;0.20;0.20;;;;;;;2.17;73.81;103536.72;5029473;28;20025;-80
2023/01/22 01:45:22;;;;;;;0.20;0.20;;;;;;;2.24;73.93;103528.44;5027240;28;20040;-80
2023/01/22 01:48:09;;;;;;;0.10;0.10;;;;;;;2.22;73.83;103527.44;5028138;28;20401;-80
2023/01/22 01:50:38;;;;;;;0.30;0.30;;;;;;;2.23;73.65;103525.69;5029968;28;20501;-80
2023/01/22 01:53:07;;;;;;;1.33;1.23;;;;;;;2.28;73.66;103518.13;5031422;28;20040;-80
2023/01/22 01:55:34;;;;;;;0.10;0.10;;;;;;;2.31;73.54;103513.09;5027393;28;20033;-80
2023/01/22 01:58:09;;;;;;;0.17;0.17;;;;;;;2.33;73.63;103522.81;5029578;28;20033;-80
2023/01/22 02:00:37;;;;;;;0.50;0.50;;;;;;;2.32;73.40;103520.09;5023865;28;20060;-80
2023/01/22 02:03:03;;;;;;;0.10;0.10;;;;;;;2.32;73.63;103510.53;5022942;28;20075;-80
2023/01/22 02:05:35;;;;;;;0.10;0.10;;;;;;;2.35;73.63;103515.06;5030517;28;20094;-80
2023/01/22 02:08:01;;;;;;;0.10;0.10;;;;;;;2.34;73.25;103518.47;5027239;28;20033;-80
2023/01/22 02:10:27;;;;;;;0.57;0.57;;;;;;;2.31;73.05;103515.69;5030351;28;20104;-80
2023/01/22 02:12:56;;;;;;;0.20;0.20;;;;;;;2.33;73.24;103512.34;5027762;28;20034;-80
2023/01/22 02:15:23;;;;;;;0.20;0.20;;;;;;;2.31;73.35;103502.63;5023954;28;20037;-80
2023/01/22 02:17:49;;;;;;;0.20;0.20;;;;;;;2.30;73.19;103512.16;5029623;28;20046;-80
2023/01/22 02:20:15;;;;;;;0.10;0.10;;;;;;;2.35;73.02;103509.81;5026433;28;20416;-80
2023/01/22 02:22:41;;;;;;;0.10;0.10;;;;;;;2.35;73.09;103499.34;5026567;28;20481;-80
2023/01/22 02:25:08;;;;;;;0.20;0.20;;;;;;;2.37;73.28;103502.97;5030789;28;20040;-80
2023/01/22 02:27:35;;;;;;;0.77;0.77;;;;;;;2.37;73.07;103503.84;5025044;28;20044;-80
2023/01/22 02:30:01;;;;;;;0.13;0.13;;;;;;;2.36;72.99;103493.31;5025817;28;20029;-80
2023/01/22 02:32:27;;;;;;;0.20;0.20;;;;;;;2.34;72.83;103500.16;5025960;28;20024;-80
2023/01/22 02:34:54;;;;;;;0.10;0.10;;;;;;;2.33;72.56;103495.75;5031692;28;20711;-80
2023/01/22 02:37:20;;;;;;;0.28;0.28;;;;;;;2.30;72.41;103498.19;5033215;28;20079;-80
2023/01/22 02:39:46;;;;;;;0.10;0.10;;;;;;;2.37;72.74;103500.34;5032375;28;20099;-80
2023/01/22 02:42:13;;;;;;;0.10;0.10;;;;;;;2.39;72.45;103490.84;5031891;28;20030;-80
2023/01/22 02:44:39;;;;;;;0.20;0.20;;;;;;;2.42;72.48;103493.66;5033421;28;20079;-80
2023/01/22 02:47:05;;;;;;;0.20;0.20;;;;;;;2.44;72.90;103494.63;5031706;28;20031;-80
2023/01/22 02:49:31;;;;;;;0.10;0.10;;;;;;;2.45;72.42;103495.53;5032006;28;20040;-80
2023/01/22 02:51:57;;;;;;;0.17;0.17;;;;;;;2.49;72.51;103492.28;5031428;28;20017;-80
2023/01/22 02:54:23;;;;;;;0.20;0.20;;;;;;;2.53;72.52;103487.31;5029802;28;20033;-80
2023/01/22 02:56:49;;;;;;;0.55;0.55;;;;;;;2.53;72.52;103499.47;5028293;28;20025;-80
2023/01/22 02:59:15;;;;;;;0.20;0.20;;;;;;;2.56;72.47;103486.56;5035871;28;20038;-80
2023/01/22 03:01:42;;;;;;;0.13;0.13;;;;;;;2.59;72.32;103485.03;5030041;28;20029;-80
2023/01/22 03:04:11;;;;;;;0.20;0.20;;;;;;;2.64;72.41;103489.63;5036391;28;20068;-80
2023/01/22 03:06:39;;;;;;;0.20;0.20;;;;;;;2.64;72.37;103481.75;5031979;28;20037;-80
2023/01/22 03:09:06;;;;;;;0.20;0.20;;;;;;;2.66;72.16;103480.13;5020008;28;20037;-80
2023/01/22 03:11:35;;;;;;;0.20;0.20;;;;;;;2.70;72.34;103487.34;5035897;28;20037;-80
2023/01/22 03:22:21;;;;;;;0.10;0.10;;;;;;;2.74;71.51;103481.44;5039457;28;20041;-80
2023/01/22 03:24:51;;;;;;;0.10;0.10;;;;;;;2.74;71.63;103479.75;5038223;28;20125;-80
2023/01/22 03:27:20;;;;;;;0.20;0.20;;;;;;;2.75;71.40;103478.00;5032669;28;20029;-80
2023/01/22 03:29:46;;;;;;;0.10;0.10;;;;;;;2.75;71.64;103473.69;5028741;28;20026;-80
2023/01/22 03:32:13;;;;;;;0.20;0.20;;;;;;;2.79;71.62;103473.84;5033898;28;20557;-80
2023/01/22 03:34:39;;;;;;;0.40;0.40;;;;;;;2.76;71.29;103469.34;5035565;28;20076;-80
2023/01/22 03:37:07;;;;;;;0.35;0.35;;;;;;;2.81;71.17;103472.22;5035208;28;20029;-80
2023/01/22 03:39:34;;;;;;;0.20;0.20;;;;;;;2.79;71.40;103464.28;5032323;28;20026;-80
2023/01/22 03:42:00;;;;;;;0.17;0.17;;;;;;;2.79;70.95;103466.91;5033940;28;20484;-80
2023/01/22 03:44:26;;;;;;;0.10;0.10;;;;;;;2.82;71.12;103461.81;5031801;28;20060;-80
2023/01/22 03:46:52;;;;;;;0.10;0.10;;;;;;;2.80;71.16;103452.09;5032712;28;20036;-80
2023/01/22 03:49:19;;;;;;;0.20;0.20;;;;;;;2.80;71.18;103455.59;5028746;28;20030;-80
2023/01/22 03:51:45;;;;;;;0.20;0.20;;;;;;;2.77;71.38;103455.44;5032743;28;20033;-80
2023/01/22 03:54:13;;;;;;;0.15;0.15;;;;;;;2.71;70.83;103460.34;5031420;28;20515;-80
2023/01/22 03:56:40;;;;;;;0.10;0.10;;;;;;;2.67;70.84;103454.03;5028110;28;20053;-80
2023/01/22 03:59:07;;;;;;;0.13;0.13;;;;;;;2.65;70.73;103454.78;5022710;28;20037;-80
2023/01/22 04:01:34;;;;;;;0.20;0.20;;;;;;;2.64;71.14;103451.28;5027243;28;20057;-80
2023/01/22 04:04:00;;;;;;;0.10;0.10;;;;;;;2.63;71.04;103459.00;5027534;28;20029;-81
2023/01/22 04:06:26;;;;;;;0.10;0.10;;;;;;;2.62;71.19;103457.22;5030456;28;20121;-80
2023/01/22 04:08:53;;;;;;;0.10;0.10;;;;;;;2.61;70.73;103451.09;5022183;28;20463;-80
2023/01/22 04:11:21;;;;;;;0.20;0.20;;;;;;;2.61;71.00;103458.06;5024264;28;20053;-80
2023/01/22 04:13:48;;;;;;;0.20;0.20;;;;;;;2.57;70.85;103455.25;5020450;28;20029;-80
2023/01/22 04:16:15;;;;;;;0.10;0.10;;;;;;;2.56;70.88;103453.44;5022117;28;20044;-79
2023/01/22 04:18:41;;;;;;;0.20;0.20;;;;;;;2.57;70.83;103459.59;5016037;28;20430;-80
2023/01/22 04:21:08;;;;;;;0.20;0.20;;;;;;;2.50;70.61;103458.34;5020588;28;20112;-80
2023/01/22 04:23:34;;;;;;;0.15;0.15;;;;;;;2.54;70.84;103452.47;5017306;28;20026;-80
2023/01/22 04:26:01;;;;;;;0.10;0.10;;;;;;;2.57;70.75;103459.59;5017104;28;20445;-80
2023/01/22 04:28:27;;;;;;;0.20;0.20;;;;;;;2.57;70.78;103449.13;5019067;28;20037;-80
2023/01/22 04:30:54;;;;;;;0.65;0.65;;;;;;;2.54;70.39;103449.84;5020138;28;20058;-80
2023/01/22 04:33:20;;;;;;;0.43;0.43;;;;;;;2.56;70.52;103456.06;5021599;28;20025;-80
2023/01/22 04:35:51;;;;;;;0.43;0.43;;;;;;;2.57;70.53;103452.63;5014179;28;20038;-80
2023/01/22 04:38:17;;;;;;;0.10;0.10;;;;;;;2.55;70.62;103454.25;5017187;28;20033;-80
2023/01/22 04:40:43;;;;;;;0.28;0.28;;;;;;;2.56;70.59;103458.69;5015075;28;20072;-80
2023/01/22 04:43:10;;;;;;;0.10;0.10;;;;;;;2.56;70.84;103453.44;5016529;28;20145;-80
2023/01/22 04:45:36;;;;;;;0.10;0.10;;;;;;;2.55;70.44;103446.41;5020311;28;20044;-80
2023/01/22 04:48:02;;;;;;;0.20;0.20;;;;;;;2.55;70.59;103449.00;5017237;28;20071;-80
2023/01/22 04:50:32;;;;;;;0.20;0.20;;;;;;;2.62;70.80;103451.97;5020920;28;20041;-80
2023/01/22 04:52:59;;;;;;;0.10;0.10;;;;;;;2.67;71.07;103450.53;5017763;28;20026;-80
2023/01/22 04:55:26;;;;;;;0.17;0.17;;;;;;;2.68;70.58;103452.31;5018163;28;20087;-80
2023/01/22 04:57:55;;;;;;;0.10;0.10;;;;;;;2.74;70.72;103453.56;5022444;28;20381;-80
2023/01/22 05:00:22;;;;;;;0.20;0.20;;;;;;;2.78;70.84;103457.25;5016900;28;20120;-80
2023/01/22 05:02:48;;;;;;;0.20;0.20;;;;;;;2.79;70.71;103456.44;5021467;28;20120;-80
2023/01/22 05:05:14;;;;;;;0.20;0.20;;;;;;;2.80;70.94;103458.22;5012993;28;20076;-80
2023/01/22 05:07:40;;;;;;;0.20;0.20;;;;;;;2.81;70.33;103460.03;5022065;28;20037;-80
2023/01/22 05:10:07;;;;;;;0.20;0.20;;;;;;;2.84;70.67;103460.22;5017955;28;20109;-80
2023/01/22 05:12:36;;;;;;;0.63;0.63;;;;;;;2.87;70.79;103464.69;5023620;28;20045;-80
2023/01/22 05:15:02;;;;;;;0.52;0.52;;;;;;;2.87;71.06;103462.97;5022180;28;20087;-81
2023/01/22 05:17:28;;;;;;;0.20;0.20;;;;;;;2.86;70.45;103453.31;5021029;28;20030;-80
2023/01/22 05:19:54;;;;;;;0.10;0.10;;;;;;;2.88;70.86;103464.78;5023508;28;20039;-80
2023/01/22 05:22:20;;;;;;;0.20;0.20;;;;;;;2.87;70.52;103460.34;5029320;28;20478;-80
2023/01/22 05:24:46;;;;;;;0.20;0.20;;;;;;;2.86;70.71;103455.94;5024999;28;20129;-80
2023/01/22 05:27:12;;;;;;;0.20;0.20;;;;;;;2.86;71.13;103463.78;5030742;28;20455;-80
2023/01/22 05:29:38;;;;;;;0.10;0.10;;;;;;;2.85;70.72;103455.84;5030858;28;20401;-80
2023/01/22 05:32:05;;;;;;;0.35;0.35;;;;;;;2.85;70.65;103459.34;5029296;28;20104;-80
2023/01/22 05:34:31;;;;;;;0.10;0.10;;;;;;;2.86;71.07;103455.03;5030662;28;20051;-80
2023/01/22 05:36:57;;;;;;;0.10;0.10;;;;;;;2.86;71.23;103455.03;5032886;28;20033;-80
2023/01/22 05:39:23;;;;;;;0.20;0.20;;;;;;;2.87;70.75;103459.47;5031070;28;20076;-80
2023/01/22 05:41:49;;;;;;;0.10;0.10;;;;;;;2.86;70.65;103462.91;5032000;28;20116;-80
2023/01/22 05:44:15;;;;;;;0.20;0.20;;;;;;;2.86;71.19;103463.78;5030445;28;20041;-80
2023/01/22 05:46:41;;;;;;;0.20;0.20;;;;;;;2.87;71.60;103460.34;5030996;28;20112;-80
2023/01/22 05:49:07;;;;;;;0.20;0.20;;;;;;;2.85;70.88;103461.97;5031801;28;20503;-80
2023/01/22 05:51:34;;;;;;;0.20;0.20;;;;;;;2.85;70.80;103472.44;5041754;28;20124;-80
2023/01/22 05:54:00;;;;;;;0.10;0.10;;;;;;;2.85;71.12;103466.31;5041626;28;20080;-80
2023/01/22 05:56:26;;;;;;;0.17;0.17;;;;;;;2.86;71.08;103471.63;5031024;28;20029;-79
2023/01/22 05:58:52;;;;;;;0.13;0.13;;;;;;;2.87;71.06;103473.44;5023225;28;20029;-79
2023/01/22 06:01:18;;;;;;;0.10;0.10;;;;;;;2.88;71.09;103475.25;5026625;28;20029;-79
2023/01/22 06:03:44;;;;;;;0.20;0.20;;;;;;;2.90;71.10;103475.31;5030744;28;20025;-79
2023/01/22 06:06:12;;;;;;;0.17;0.17;;;;;;;2.91;71.13;103469.28;5031344;28;20056;-79
2023/01/22 06:08:39;;;;;;;0.20;0.20;;;;;;;2.91;70.77;103471.91;5029368;28;20091;-80
2023/01/22 06:11:08;;;;;;;0.30;0.30;;;;;;;2.95;71.46;103478.22;5027969;28;20033;-80
2023/01/22 06:13:35;;;;;;;0.10;0.10;;;;;;;2.93;71.27;103480.75;5032107;28;20405;-80
2023/01/22 06:16:01;;;;;;;0.10;0.10;;;;;;;2.96;71.20;103490.50;5022853;28;20068;-81
2023/01/22 06:18:27;;;;;;;0.10;0.10;;;;;;;2.96;71.11;103490.50;5027855;28;20041;-80
2023/01/22 06:20:58;;;;;;;1.25;0.80;;;;;;;2.98;71.53;103486.22;5030341;28;20044;-81
2023/01/22 06:23:26;;;;;;;0.20;0.20;;;;;;;2.96;71.29;103498.34;5028409;28;20109;-80
2023/01/22 06:25:53;;;;;;;0.20;0.20;;;;;;;2.96;71.66;103487.88;5028368;28;20065;-80
2023/01/22 06:28:20;;;;;;;0.20;0.20;;;;;;;2.96;71.52;103485.25;5030433;28;20033;-81
2023/01/22 06:30:47;;;;;;;0.20;0.20;;;;;;;2.97;71.24;103487.06;5020545;28;20045;-81
2023/01/22 06:33:13;;;;;;;0.20;0.20;;;;;;;2.98;71.24;103495.00;5030189;28;20021;-81
2023/01/22 06:35:39;;;;;;;0.10;0.10;;;;;;;2.99;71.50;103491.56;5027700;28;20515;-81
2023/01/22 06:38:06;;;;;;;0.20;0.20;;;;;;;3.01;71.45;103489.91;5026619;28;20068;-80
2023/01/22 06:40:33;;;;;;;0.10;0.10;;;;;;;3.04;71.38;103486.53;5027138;28;20478;-80
2023/01/22 06:43:08;;;;;;;0.20;0.20;;;;;;;3.08;71.08;103480.66;5030146;28;20061;-80
2023/01/22 06:45:36;;;;;;;0.10;0.10;;;;;;;3.03;70.99;103479.53;5029342;28;20069;-80
2023/01/22 06:48:02;;;;;;;0.10;0.10;;;;;;;3.04;71.16;103473.44;5035174;28;20555;-79
2023/01/22 06:50:28;;;;;;;0.20;0.20;;;;;;;3.04;71.65;103478.69;5032771;28;20076;-79
2023/01/22 06:52:54;;;;;;;0.10;0.10;;;;;;;3.06;71.56;103474.44;5034614;28;20033;-79
2023/01/22 06:55:20;;;;;;;0.10;0.10;;;;;;;3.07;71.58;103473.63;5032033;28;20037;-79
2023/01/22 06:57:46;;;;;;;0.10;0.10;;;;;;;3.06;71.29;103472.72;5032196;28;20046;-79
2023/01/22 07:00:13;;;;;;;0.17;0.17;;;;;;;3.06;71.42;103474.44;5034545;28;20037;-79
2023/01/22 07:02:39;;;;;;;0.13;0.13;;;;;;;3.03;71.70;103471.69;5036764;28;20057;-81
2023/01/22 07:05:06;;;;;;;0.10;0.10;;;;;;;3.04;71.56;103474.38;5036780;28;20046;-82
2023/01/22 07:07:32;;;;;;;0.20;0.20;;;;;;;3.02;71.38;103480.34;5042534;28;20085;-82
2023/01/22 07:09:58;;;;;;;0.20;0.20;;;;;;;3.00;70.89;103471.50;5034922;28;20116;-79
2023/01/22 07:12:24;;;;;;;0.10;0.10;;;;;;;3.01;70.94;103473.31;5034650;28;20034;-79
2023/01/22 07:14:50;;;;;;;0.10;0.10;;;;;;;3.01;71.20;103468.06;5030094;28;20034;-79
2023/01/22 07:17:16;;;;;;;0.10;0.10;;;;;;;2.99;71.20;103469.69;5027172;28;20037;-79
2023/01/22 07:19:42;;;;;;;0.10;0.10;;;;;;;3.00;70.75;103477.63;5028373;28;20073;-79
2023/01/22 07:22:08;;;;;;;0.15;0.15;;;;;;;3.00;71.26;103476.72;5016608;28;20045;-79
2023/01/22 07:24:34;;;;;;;0.20;0.20;;;;;;;2.98;70.61;103470.50;5016779;28;20030;-79
2023/01/22 07:27:01;;;;;;;0.20;0.20;;;;;;;2.97;70.62;103476.59;5032450;28;20049;-80
2023/01/22 07:29:27;;;;;;;0.20;0.20;;;;;;;2.96;70.49;103477.41;5027993;28;20026;-80
2023/01/22 07:31:53;;;;;;;0.20;0.20;;;;;;;2.95;70.74;103483.44;5029244;28;20096;-80
2023/01/22 07:34:19;;;;;;;0.10;0.10;;;;;;;2.94;70.64;103481.63;5030579;28;20022;-80
2023/01/22 07:36:46;;;;;;;0.20;0.20;;;;;;;2.95;71.01;103492.19;5020910;28;20485;-80
2023/01/22 07:39:12;;;;;;;0.20;0.20;;;;;;;2.96;70.96;103496.63;5029795;28;20030;-80
2023/01/22 07:41:38;;;;;;;0.47;0.47;;;;;;;2.95;70.62;103494.81;5032161;28;20036;-80
2023/01/22 07:44:06;;;;;;;0.10;0.10;;;;;;;2.96;71.00;103495.72;5018437;28;20076;-80
2023/01/22 07:46:34;;;;;;;0.10;0.10;;;;;;;2.95;70.26;103501.78;5021637;28;20060;-80
2023/01/22 07:49:00;;;;;;;0.10;0.10;;;;;;;2.95;71.20;103492.19;5020858;28;20033;-80
2023/01/22 07:51:26;;;;;;;0.20;0.20;;;;;;;2.91;70.48;103487.63;5023168;28;20068;-80
2023/01/22 07:53:52;;;;;;;0.20;0.20;;;;;;;2.91;71.07;103488.50;5024870;28;20056;-80
2023/01/22 07:56:18;;;;;;;0.10;0.10;;;;;;;2.94;71.14;103492.13;5018384;28;20038;-80
2023/01/22 07:58:45;;;;;;;0.10;0.10;;;;;;;2.92;70.81;103502.50;5026948;28;20033;-80
2023/01/22 08:01:11;;;;;;;0.20;0.20;;;;;;;2.91;70.34;103498.97;5025289;28;20033;-80
2023/01/22 08:03:38;;;;;;;0.43;0.43;;;;;;;2.91;70.82;103511.19;5026721;28;20026;-80
2023/01/22 08:06:08;;;;;;;0.20;0.20;;;;;;;2.95;70.74;103507.91;5021915;28;20037;-81
2023/01/22 08:08:34;;;;;;;0.10;0.10;;;;;;;2.94;70.71;103513.06;5023702;28;20566;-80
2023/01/22 08:11:00;;;;;;;0.15;0.15;;;;;;;2.94;70.88;103513.06;5025004;28;20056;-80
2023/01/22 08:13:26;;;;;;;0.20;0.20;;;;;;;2.96;70.86;103519.28;5023088;28;20053;-80
2023/01/22 08:15:53;;;;;;;0.10;0.10;;;;;;;2.98;71.16;103526.41;5026083;28;20040;-80
2023/01/22 08:18:20;;;;;;;0.10;0.10;;;;;;;2.96;70.10;103532.41;5027949;28;20022;-80
2023/01/22 08:20:46;;;;;;;0.10;0.10;;;;;;;2.96;70.68;103532.41;5039273;28;20056;-80
2023/01/22 08:23:13;;;;;;;0.10;0.10;;;;;;;3.00;71.00;103531.72;5024274;28;20110;-81
2023/01/22 08:25:39;;;;;;;1.23;1.13;;;;;;;3.03;70.99;103534.53;5030284;28;20040;-80
2023/01/22 08:28:05;;;;;;;0.10;0.10;;;;;;;3.05;70.79;103532.88;5034096;28;20037;-81
2023/01/22 08:30:33;;;;;;;0.10;0.10;;;;;;;3.05;70.96;103531.19;5027016;28;20497;-80
2023/01/22 08:33:01;;;;;;;0.77;0.77;;;;;;;3.08;71.07;103533.06;5034365;28;20029;-80
2023/01/22 08:35:28;;;;;;;0.10;0.10;;;;;;;3.10;70.53;103536.66;5033961;28;20021;-81
2023/01/22 08:37:57;;;;;;;0.10;0.10;;;;;;;3.13;70.53;103541.16;5034675;28;20090;-81
2023/01/22 08:40:24;;;;;;;0.20;0.20;;;;;;;3.14;70.35;103543.88;5032715;28;20087;-81
2023/01/22 08:42:51;;;;;;;0.20;0.20;;;;;;;3.15;70.46;103540.41;5028299;28;20026;-80
2023/01/22 08:45:18;;;;;;;0.20;0.20;;;;;;;3.18;70.26;103535.34;5027843;28;20052;-80
2023/01/22 08:47:44;;;;;;;0.28;0.28;;;;;;;3.21;70.26;103537.25;5028866;28;20039;-80
2023/01/22 08:50:11;;;;;;;0.10;0.10;;;;;;;3.23;70.83;103530.38;5022857;28;20556;-80
2023/01/22 08:52:37;;;;;;;0.20;0.20;;;;;;;3.22;70.55;103532.06;5024586;28;20053;-80
2023/01/22 08:55:05;;;;;;;0.10;0.10;;;;;;;3.26;70.23;103537.50;5024457;28;20038;-81
2023/01/22 08:57:31;;;;;;;0.20;0.20;;;;;;;3.28;70.19;103525.34;5024283;28;20026;-80
2023/01/22 08:59:57;;;;;;;0.15;0.15;;;;;;;3.32;70.13;103532.59;5029353;28;20106;-81
2023/01/22 09:02:23;;;;;;;0.10;0.10;;;;;;;3.33;69.85;103537.00;5018466;28;20108;-81
2023/01/22 09:04:49;;;;;;;0.10;0.10;;;;;;;3.37;70.18;103549.44;5024673;28;20051;-81
2023/01/22 09:07:15;;;;;;;0.20;0.20;;;;;;;3.33;70.12;103545.75;5019739;28;20382;-81
2023/01/22 09:09:41;;;;;;;0.40;0.40;;;;;;;3.33;69.59;103550.13;5019901;28;20030;-81
2023/01/22 09:12:07;;;;;;;0.20;0.20;;;;;;;3.35;69.36;103545.84;5020161;28;20037;-81
2023/01/22 09:14:33;;;;;;;0.28;0.28;;;;;;;3.37;69.75;103547.72;5021397;28;20029;-80
2023/01/22 09:17:00;;;;;;;0.10;0.10;;;;;;;3.39;69.47;103539.97;5054532;28;20014;-80
2023/01/22 09:19:26;;;;;;;0.20;0.20;;;;;;;3.42;68.85;103549.69;5041764;28;20034;-80
2023/01/22 09:21:52;;;;;;;2.40;1.45;;;;;;;3.44;69.43;103548.97;5048391;28;20022;-80
2023/01/22 09:24:18;;;;;;;0.20;0.20;;;;;;;3.44;69.01;103546.34;5050546;28;20068;-81
2023/01/22 09:26:44;;;;;;;0.20;0.20;;;;;;;3.46;69.15;103546.41;5047928;28;20057;-79
2023/01/22 09:29:10;;;;;;;0.20;0.20;;;;;;;3.47;68.96;103548.22;5045088;28;20040;-79
2023/01/22 09:31:36;;;;;;;0.20;0.20;;;;;;;3.53;69.66;103554.69;5040634;28;20037;-80
2023/01/22 09:34:03;;;;;;;0.20;0.20;;;;;;;3.52;69.20;103558.13;5042060;28;20029;-80
2023/01/22 09:36:29;;;;;;;0.20;0.20;;;;;;;3.56;69.47;103562.72;5043763;28;20047;-80
2023/01/22 09:38:56;;;;;;;0.10;0.10;;;;;;;3.59;68.96;103555.81;5044812;28;20056;-80
2023/01/22 09:41:29;;;;;;;0.10;0.10;;;;;;;3.66;69.50;103561.47;5043598;28;20068;-80
2023/01/22 09:44:03;;;;;;;0.10;0.10;;;;;;;3.68;68.76;103569.44;5043499;28;20053;-80
2023/01/22 09:46:42;;;;;;;0.10;0.10;;;;;;;3.71;69.08;103559.09;5046468;28;20029;-80
2023/01/22 09:49:15;;;;;;;0.10;0.10;;;;;;;3.73;68.91;103562.69;5038057;28;20049;-80
2023/01/22 09:51:45;;;;;;;0.10;0.10;;;;;;;3.72;68.77;103560.88;5046538;28;20037;-80
2023/01/22 09:54:14;;;;;;;0.30;0.30;;;;;;;3.78;69.12;103562.94;5037232;28;20084;-82
2023/01/22 09:56:44;;;;;;;0.65;0.43;;;;;;;3.80;69.47;103548.16;5029226;28;20038;-81
2023/01/22 09:59:16;;;;;;;0.20;0.20;;;;;;;3.79;69.25;103542.03;5024472;28;20068;-82
2023/01/22 10:01:48;;;;;;;0.20;0.20;;;;;;;3.77;69.27;103538.44;5030583;28;20401;-82
2023/01/22 10:04:41;;;;;;;0.20;0.20;;;;;;;3.75;68.72;103550.56;5017409;28;20559;-82
2023/01/22 10:07:16;;;;;;;0.73;0.73;;;;;;;3.72;69.06;103547.78;5030485;28;20034;-81
2023/01/22 10:09:50;;;;;;;0.10;0.10;;;;;;;3.69;69.12;103551.16;5030703;28;20452;-81
2023/01/22 10:12:16;;;;;;;0.10;0.10;;;;;;;3.67;69.30;103554.50;5022029;28;20280;-80
2023/01/22 10:14:43;;;;;;;0.20;0.20;;;;;;;3.66;68.99;103552.69;5024708;28;20096;-80
2023/01/22 10:17:21;;;;;;;0.20;0.20;;;;;;;3.68;69.63;103553.69;5027503;28;20112;-82
2023/01/22 10:19:54;;;;;;;0.40;0.40;;;;;;;3.65;69.63;103561.38;5032982;28;20063;-81
2023/01/22 10:22:23;;;;;;;0.20;0.20;;;;;;;3.63;68.78;103561.31;5038420;28;20025;-82
2023/01/22 10:24:50;;;;;;;0.17;0.17;;;;;;;3.68;69.25;103551.06;5033622;28;20080;-82
2023/01/22 10:27:20;;;;;;;0.30;0.30;;;;;;;3.73;69.35;103550.47;5030899;28;20033;-81
2023/01/22 10:30:15;;;;;;;0.10;0.10;;;;;;;3.83;68.52;103543.09;5026998;28;20038;-82
2023/01/22 10:32:42;;;;;;;0.20;0.20;;;;;;;3.83;68.10;103548.34;5024684;28;20087;-82
2023/01/22 10:37:51;;;;;;;0.17;0.17;;;;;;;3.94;68.95;103543.63;5069535;27;20406;-82
2023/01/22 10:43:01;;;;;;;0.45;0.45;;;;;;;3.95;68.47;103548.97;5089703;27;1201940;-83
2023/01/22 10:45:27;;;;;;;0.25;0.25;;;;;;;3.92;68.54;103554.06;5114434;28;20040;-82
2023/01/22 10:48:04;;;;;;;0.10;0.10;;;;;;;3.94;68.40;103552.41;5121015;28;20098;-82
2023/01/22 10:50:30;;;;;;;0.10;0.10;;;;;;;3.89;68.34;103554.78;5112437;28;20031;-83
2023/01/22 10:52:57;;;;;;;0.10;0.10;;;;;;;3.91;68.59;103553.97;5113064;28;20039;-83
2023/01/22 10:55:29;;;;;;;0.10;0.10;;;;;;;3.98;68.52;103554.38;5114759;28;20044;-83
2023/01/22 11:00:36;;;;;;;0.20;0.20;;;;;;;4.11;69.17;103545.41;5101827;27;20422;-83
2023/01/22 11:03:20;;;;;;;0.10;0.10;;;;;;;4.23;68.70;103544.22;5096578;28;20295;-83
2023/01/22 11:05:46;;;;;;;0.10;0.10;;;;;;;4.25;68.30;103545.19;5085056;28;20044;-84
2023/01/22 11:08:18;;;;;;;0.40;0.40;;;;;;;4.32;68.56;103535.06;5089928;28;20020;-84
2023/01/22 11:13:29;;;;;;;0.20;0.20;;;;;;;4.34;68.10;103532.53;5078792;27;20135;-82
2023/01/22 11:16:04;;;;;;;0.10;0.10;;;;;;;4.36;68.27;103528.22;5074463;28;20040;-82
2023/01/22 11:18:35;;;;;;;0.13;0.13;;;;;;;4.37;68.06;103527.41;5071851;28;20040;-82
2023/01/22 11:21:11;;;;;;;0.20;0.20;;;;;;;4.38;68.40;103523.97;5071565;28;20024;-82
2023/01/22 11:26:53;;;;;;;0.10;0.10;;;;;;;4.46;68.41;103527.88;5093427;27;20385;-82
2023/01/22 11:29:51;;;;;;;0.10;0.10;;;;;;;4.51;67.68;103525.44;5078112;28;20543;-83
2023/01/22 11:38:03;;;;;;;0.10;0.10;;;;;;;4.79;68.41;103506.66;5112860;27;1173645;-84
2023/01/22 11:40:32;;;;;;;0.20;0.20;;;;;;;4.82;68.53;103501.56;5128918;28;20035;-83
2023/01/22 11:46:08;;;;;;;0.17;0.17;;;;;;;5.06;69.02;103497.34;5112695;27;1289008;-83
2023/01/22 11:49:01;;;;;;;0.10;0.10;;;;;;;5.07;66.50;103489.56;5107773;28;20507;-83
2023/01/22 11:51:56;;;;;;;0.15;0.15;;;;;;;5.20;68.57;103498.91;5097458;28;20047;-83
2023/01/22 11:54:52;;;;;;;0.10;0.10;;;;;;;5.18;67.54;103480.44;5107520;28;20053;-83
2023/01/22 11:57:27;;;;;;;0.10;0.10;;;;;;;5.14;67.15;103486.38;5099618;28;20036;-83
2023/01/22 12:00:19;;;;;;;0.20;0.20;;;;;;;5.18;67.67;103485.69;5098492;28;20118;-84
2023/01/22 12:03:15;;;;;;;0.10;0.10;;;;;;;5.26;67.89;103479.84;5094979;28;20036;-84
2023/01/22 12:06:11;;;;;;;0.10;0.10;;;;;;;5.25;67.89;103475.44;5085803;28;20042;-83
2023/01/22 12:22:28;;;;;;;0.10;0.10;;;;;;;5.21;67.33;103479.66;5087187;27;20440;-79
2023/01/22 12:28:46;;;;;;;0.20;0.20;;;;;;;5.10;67.13;103489.69;5054710;28;20419;-81